Ana Sayfa
METAR-TAF:

METAR-TAF

Havaalanları :

Penn Valley Airport

Selinsgrove, Pensilvanya, Amerika Birleşik Devletleri

Enlem: 40-49-09N, Boylam: 076-51-58W, yükseklik: 137 m

Güncel hava durumu gözlemi

Rapor saat 17:53 UTC de 48 dakika önce yapıldı.
Rüzgar kuzey/kuzeybatıdan 8 kt
Sıcaklık 3°C
Nem 48%
Basınç 1029 hPa
Görüş mesafesi: 16.1 km
Açık gökyüzü

METAR: KSEG 071753Z AUTO 33008KT 10SM CLR 03/M07 A3038 RMK AO2 SLP292 T00331072 10044 21017 58007

Saat: 13:41 (18:41 UTC)


TAF: eksik

4.000'den fazla havaalanı için hava durumu gözlemleri ve tahminleri (METAR ve TAF raporları).

Kullanılabilir istasyonlar harita üzerinde sarı ve kırmızı noktalarla gösterilir.

İstasyonun adını görmek için fareyi noktanın üzerinde gezdirin.

Sonrasında hava gözlem ve tahminlerini görmek için tıklayın.

Haritayı değiştirmek için: yaklaştırmak için siyah artı işaretli yeşil düğmeye ve uzaklaştırmak için de eksi işaretli düğmeye hızla tıklayın; bitişik haritalar için yeşil okları kullanın.


METAR-TAF: